sensor_id;sensor_type;location;lat;lon;timestamp;temperature;humidity
10042;DHT22;5061;49.068;12.058;2024-01-06T00:02:20;4.40;99.90
10042;DHT22;5061;49.068;12.058;2024-01-06T00:05:40;4.40;99.90
10042;DHT22;5061;49.068;12.058;2024-01-06T00:09:01;4.40;99.90
10042;DHT22;5061;49.068;12.058;2024-01-06T00:12:22;4.40;99.90
10042;DHT22;5061;49.068;12.058;2024-01-06T00:15:42;4.40;99.90
10042;DHT22;5061;49.068;12.058;2024-01-06T00:19:03;4.40;99.90
10042;DHT22;5061;49.068;12.058;2024-01-06T00:22:23;4.40;99.90
10042;DHT22;5061;49.068;12.058;2024-01-06T00:25:44;4.50;99.90
10042;DHT22;5061;49.068;12.058;2024-01-06T00:29:05;4.50;99.90
10042;DHT22;5061;49.068;12.058;2024-01-06T00:32:25;4.50;99.90
10042;DHT22;5061;49.068;12.058;2024-01-06T00:35:46;4.50;99.90
10042;DHT22;5061;49.068;12.058;2024-01-06T00:39:06;4.50;99.90
10042;DHT22;5061;49.068;12.058;2024-01-06T00:42:27;4.50;99.90
10042;DHT22;5061;49.068;12.058;2024-01-06T00:45:47;4.50;99.90
10042;DHT22;5061;49.068;12.058;2024-01-06T00:49:08;4.50;99.90
10042;DHT22;5061;49.068;12.058;2024-01-06T00:52:29;4.50;99.90
10042;DHT22;5061;49.068;12.058;2024-01-06T00:55:49;4.50;99.90
10042;DHT22;5061;49.068;12.058;2024-01-06T00:59:10;4.50;99.90
10042;DHT22;5061;49.068;12.058;2024-01-06T01:02:30;4.50;99.90
10042;DHT22;5061;49.068;12.058;2024-01-06T01:05:51;4.50;99.90
10042;DHT22;5061;49.068;12.058;2024-01-06T01:09:12;4.50;99.90
10042;DHT22;5061;49.068;12.058;2024-01-06T01:12:34;4.50;99.90
10042;DHT22;5061;49.068;12.058;2024-01-06T01:15:55;4.50;99.90
10042;DHT22;5061;49.068;12.058;2024-01-06T01:19:16;4.50;99.90
10042;DHT22;5061;49.068;12.058;2024-01-06T01:22:36;4.50;99.90
10042;DHT22;5061;49.068;12.058;2024-01-06T01:25:57;4.50;99.90
10042;DHT22;5061;49.068;12.058;2024-01-06T01:29:18;4.50;99.90
10042;DHT22;5061;49.068;12.058;2024-01-06T01:32:40;4.50;99.90
10042;DHT22;5061;49.068;12.058;2024-01-06T01:36:01;4.40;99.90
10042;DHT22;5061;49.068;12.058;2024-01-06T01:39:21;4.50;99.90
10042;DHT22;5061;49.068;12.058;2024-01-06T01:42:43;4.40;99.90
10042;DHT22;5061;49.068;12.058;2024-01-06T01:46:04;4.40;99.90
10042;DHT22;5061;49.068;12.058;2024-01-06T01:49:25;4.40;99.90
10042;DHT22;5061;49.068;12.058;2024-01-06T01:52:46;4.40;99.90
10042;DHT22;5061;49.068;12.058;2024-01-06T01:56:08;4.40;99.90
10042;DHT22;5061;49.068;12.058;2024-01-06T01:59:29;4.40;99.90
10042;DHT22;5061;49.068;12.058;2024-01-06T02:02:49;4.40;99.90
10042;DHT22;5061;49.068;12.058;2024-01-06T02:06:11;4.40;99.90
10042;DHT22;5061;49.068;12.058;2024-01-06T02:09:31;4.40;99.90
10042;DHT22;5061;49.068;12.058;2024-01-06T02:12:52;4.40;99.90
10042;DHT22;5061;49.068;12.058;2024-01-06T02:16:13;4.40;99.90
10042;DHT22;5061;49.068;12.058;2024-01-06T02:19:33;4.40;99.90
10042;DHT22;5061;49.068;12.058;2024-01-06T02:22:54;4.40;99.90
10042;DHT22;5061;49.068;12.058;2024-01-06T02:26:16;4.40;99.90
10042;DHT22;5061;49.068;12.058;2024-01-06T02:29:37;4.40;99.90
10042;DHT22;5061;49.068;12.058;2024-01-06T02:32:57;4.40;99.90
10042;DHT22;5061;49.068;12.058;2024-01-06T02:36:18;4.40;99.90
10042;DHT22;5061;49.068;12.058;2024-01-06T02:39:38;4.40;99.90
10042;DHT22;5061;49.068;12.058;2024-01-06T02:42:59;4.40;99.90
10042;DHT22;5061;49.068;12.058;2024-01-06T02:46:20;4.40;99.90
10042;DHT22;5061;49.068;12.058;2024-01-06T02:49:40;4.40;99.90
10042;DHT22;5061;49.068;12.058;2024-01-06T02:53:01;4.40;99.90
10042;DHT22;5061;49.068;12.058;2024-01-06T02:56:21;4.40;99.90
10042;DHT22;5061;49.068;12.058;2024-01-06T02:59:42;4.40;99.90
10042;DHT22;5061;49.068;12.058;2024-01-06T03:03:03;4.40;99.90
10042;DHT22;5061;49.068;12.058;2024-01-06T03:06:24;4.40;99.90
10042;DHT22;5061;49.068;12.058;2024-01-06T03:09:44;4.40;99.90
10042;DHT22;5061;49.068;12.058;2024-01-06T03:13:05;4.40;99.90
10042;DHT22;5061;49.068;12.058;2024-01-06T03:16:25;4.40;99.90
10042;DHT22;5061;49.068;12.058;2024-01-06T03:19:46;4.40;99.90
10042;DHT22;5061;49.068;12.058;2024-01-06T03:23:06;4.40;99.90
10042;DHT22;5061;49.068;12.058;2024-01-06T03:26:27;4.40;99.90
10042;DHT22;5061;49.068;12.058;2024-01-06T03:29:48;4.30;99.90
10042;DHT22;5061;49.068;12.058;2024-01-06T03:33:08;4.40;99.90
10042;DHT22;5061;49.068;12.058;2024-01-06T03:36:29;4.30;99.90
10042;DHT22;5061;49.068;12.058;2024-01-06T03:39:49;4.30;99.90
10042;DHT22;5061;49.068;12.058;2024-01-06T03:43:10;4.30;99.90
10042;DHT22;5061;49.068;12.058;2024-01-06T03:46:30;4.30;99.90
10042;DHT22;5061;49.068;12.058;2024-01-06T03:49:51;4.30;99.90
10042;DHT22;5061;49.068;12.058;2024-01-06T03:53:12;4.30;99.90
10042;DHT22;5061;49.068;12.058;2024-01-06T03:56:32;4.30;99.90
10042;DHT22;5061;49.068;12.058;2024-01-06T03:59:53;4.30;99.90
10042;DHT22;5061;49.068;12.058;2024-01-06T04:03:14;4.30;99.90
10042;DHT22;5061;49.068;12.058;2024-01-06T04:06:34;4.30;99.90
10042;DHT22;5061;49.068;12.058;2024-01-06T04:09:55;4.30;99.90
10042;DHT22;5061;49.068;12.058;2024-01-06T04:13:15;4.40;99.90
10042;DHT22;5061;49.068;12.058;2024-01-06T04:16:36;4.30;99.90
10042;DHT22;5061;49.068;12.058;2024-01-06T04:19:57;4.30;99.90
10042;DHT22;5061;49.068;12.058;2024-01-06T04:23:17;4.30;99.90
10042;DHT22;5061;49.068;12.058;2024-01-06T04:26:38;4.30;99.90
10042;DHT22;5061;49.068;12.058;2024-01-06T04:29:59;4.20;99.90
10042;DHT22;5061;49.068;12.058;2024-01-06T04:33:21;4.20;99.90
10042;DHT22;5061;49.068;12.058;2024-01-06T04:36:42;4.20;99.90
10042;DHT22;5061;49.068;12.058;2024-01-06T04:40:03;4.30;99.90
10042;DHT22;5061;49.068;12.058;2024-01-06T04:43:24;4.30;99.90
10042;DHT22;5061;49.068;12.058;2024-01-06T04:46:44;4.30;99.90
10042;DHT22;5061;49.068;12.058;2024-01-06T04:50:05;4.30;99.90
10042;DHT22;5061;49.068;12.058;2024-01-06T04:53:26;4.30;99.90
10042;DHT22;5061;49.068;12.058;2024-01-06T04:56:47;4.30;99.90
10042;DHT22;5061;49.068;12.058;2024-01-06T05:00:08;4.30;99.90
10042;DHT22;5061;49.068;12.058;2024-01-06T05:03:29;4.30;99.90
10042;DHT22;5061;49.068;12.058;2024-01-06T05:06:51;4.30;99.90
10042;DHT22;5061;49.068;12.058;2024-01-06T05:10:12;4.30;99.90
10042;DHT22;5061;49.068;12.058;2024-01-06T05:13:32;4.30;99.90
10042;DHT22;5061;49.068;12.058;2024-01-06T05:16:53;4.30;99.90
10042;DHT22;5061;49.068;12.058;2024-01-06T05:20:13;4.30;99.90
10042;DHT22;5061;49.068;12.058;2024-01-06T05:23:34;4.30;99.90
10042;DHT22;5061;49.068;12.058;2024-01-06T05:26:55;4.30;99.90
10042;DHT22;5061;49.068;12.058;2024-01-06T05:30:15;4.30;99.90
10042;DHT22;5061;49.068;12.058;2024-01-06T05:33:36;4.30;99.90
10042;DHT22;5061;49.068;12.058;2024-01-06T05:36:56;4.30;99.90
10042;DHT22;5061;49.068;12.058;2024-01-06T05:40:17;4.30;99.90
10042;DHT22;5061;49.068;12.058;2024-01-06T05:43:38;4.20;99.90
10042;DHT22;5061;49.068;12.058;2024-01-06T05:46:59;4.20;99.90
10042;DHT22;5061;49.068;12.058;2024-01-06T05:50:19;4.10;99.90
10042;DHT22;5061;49.068;12.058;2024-01-06T05:53:40;4.10;99.90
10042;DHT22;5061;49.068;12.058;2024-01-06T05:57:02;4.10;99.90
10042;DHT22;5061;49.068;12.058;2024-01-06T06:00:23;4.20;99.90
10042;DHT22;5061;49.068;12.058;2024-01-06T06:03:43;4.20;99.90
10042;DHT22;5061;49.068;12.058;2024-01-06T06:07:04;4.20;99.90
10042;DHT22;5061;49.068;12.058;2024-01-06T06:10:24;4.10;99.90
10042;DHT22;5061;49.068;12.058;2024-01-06T06:13:50;4.10;99.90
10042;DHT22;5061;49.068;12.058;2024-01-06T06:17:11;4.10;99.90
10042;DHT22;5061;49.068;12.058;2024-01-06T06:20:31;4.00;99.90
10042;DHT22;5061;49.068;12.058;2024-01-06T06:23:52;4.00;99.90
10042;DHT22;5061;49.068;12.058;2024-01-06T06:27:13;4.00;99.90
10042;DHT22;5061;49.068;12.058;2024-01-06T06:30:33;4.00;99.90
10042;DHT22;5061;49.068;12.058;2024-01-06T06:33:54;4.00;99.90
10042;DHT22;5061;49.068;12.058;2024-01-06T06:37:14;4.00;99.90
10042;DHT22;5061;49.068;12.058;2024-01-06T06:40:36;4.00;99.90
10042;DHT22;5061;49.068;12.058;2024-01-06T06:43:57;4.00;99.90
10042;DHT22;5061;49.068;12.058;2024-01-06T06:47:18;4.00;99.90
10042;DHT22;5061;49.068;12.058;2024-01-06T06:50:39;4.00;99.90
10042;DHT22;5061;49.068;12.058;2024-01-06T06:54:01;3.90;99.90
10042;DHT22;5061;49.068;12.058;2024-01-06T06:57:22;3.90;99.90
10042;DHT22;5061;49.068;12.058;2024-01-06T07:00:43;3.80;99.90
10042;DHT22;5061;49.068;12.058;2024-01-06T07:04:04;3.70;99.90
10042;DHT22;5061;49.068;12.058;2024-01-06T07:07:25;3.80;99.90
10042;DHT22;5061;49.068;12.058;2024-01-06T07:10:45;3.80;99.90
10042;DHT22;5061;49.068;12.058;2024-01-06T07:14:06;3.80;99.90
10042;DHT22;5061;49.068;12.058;2024-01-06T07:17:27;3.80;99.90
10042;DHT22;5061;49.068;12.058;2024-01-06T07:20:47;3.80;99.90
10042;DHT22;5061;49.068;12.058;2024-01-06T07:24:08;3.80;99.90
10042;DHT22;5061;49.068;12.058;2024-01-06T07:27:29;3.80;99.90
10042;DHT22;5061;49.068;12.058;2024-01-06T07:30:49;3.90;99.90
10042;DHT22;5061;49.068;12.058;2024-01-06T07:34:10;3.90;99.90
10042;DHT22;5061;49.068;12.058;2024-01-06T07:37:32;3.90;99.90
10042;DHT22;5061;49.068;12.058;2024-01-06T07:40:53;4.00;99.90
10042;DHT22;5061;49.068;12.058;2024-01-06T07:44:15;3.90;99.90
10042;DHT22;5061;49.068;12.058;2024-01-06T07:47:36;4.00;99.90
10042;DHT22;5061;49.068;12.058;2024-01-06T07:51:01;4.00;99.90
10042;DHT22;5061;49.068;12.058;2024-01-06T07:54:22;4.00;99.90
10042;DHT22;5061;49.068;12.058;2024-01-06T07:57:42;4.00;99.90
10042;DHT22;5061;49.068;12.058;2024-01-06T08:01:04;4.10;99.90
10042;DHT22;5061;49.068;12.058;2024-01-06T08:04:25;4.10;99.90
10042;DHT22;5061;49.068;12.058;2024-01-06T08:07:45;4.10;99.90
10042;DHT22;5061;49.068;12.058;2024-01-06T08:11:06;4.10;99.90
10042;DHT22;5061;49.068;12.058;2024-01-06T08:14:26;4.10;99.90
10042;DHT22;5061;49.068;12.058;2024-01-06T08:17:47;4.10;99.90
10042;DHT22;5061;49.068;12.058;2024-01-06T08:21:08;4.20;99.90
10042;DHT22;5061;49.068;12.058;2024-01-06T08:24:28;4.20;99.90
10042;DHT22;5061;49.068;12.058;2024-01-06T08:27:49;4.20;99.90
10042;DHT22;5061;49.068;12.058;2024-01-06T08:31:09;4.20;99.90
10042;DHT22;5061;49.068;12.058;2024-01-06T08:34:30;4.20;99.90
10042;DHT22;5061;49.068;12.058;2024-01-06T08:37:50;4.20;99.90
10042;DHT22;5061;49.068;12.058;2024-01-06T08:41:11;4.10;99.90
10042;DHT22;5061;49.068;12.058;2024-01-06T08:44:32;4.10;99.90
10042;DHT22;5061;49.068;12.058;2024-01-06T08:47:52;4.10;99.90
10042;DHT22;5061;49.068;12.058;2024-01-06T08:51:13;4.20;99.90
10042;DHT22;5061;49.068;12.058;2024-01-06T08:54:33;4.20;99.90
10042;DHT22;5061;49.068;12.058;2024-01-06T09:01:54;4.20;99.90
10042;DHT22;5061;49.068;12.058;2024-01-06T09:05:18;4.30;99.90
10042;DHT22;5061;49.068;12.058;2024-01-06T09:08:39;4.40;99.90
10042;DHT22;5061;49.068;12.058;2024-01-06T09:11:59;4.40;99.90
10042;DHT22;5061;49.068;12.058;2024-01-06T09:15:20;4.50;99.90
10042;DHT22;5061;49.068;12.058;2024-01-06T09:18:41;4.50;99.90
10042;DHT22;5061;49.068;12.058;2024-01-06T09:22:01;4.50;99.90
10042;DHT22;5061;49.068;12.058;2024-01-06T09:25:22;4.50;99.90
10042;DHT22;5061;49.068;12.058;2024-01-06T09:28:44;4.60;99.90
10042;DHT22;5061;49.068;12.058;2024-01-06T09:32:05;4.60;99.90
10042;DHT22;5061;49.068;12.058;2024-01-06T09:35:26;4.60;99.90
10042;DHT22;5061;49.068;12.058;2024-01-06T09:38:46;4.60;99.90
10042;DHT22;5061;49.068;12.058;2024-01-06T09:42:07;4.60;99.90
10042;DHT22;5061;49.068;12.058;2024-01-06T09:45:31;4.60;99.90
10042;DHT22;5061;49.068;12.058;2024-01-06T09:48:54;4.60;99.90
10042;DHT22;5061;49.068;12.058;2024-01-06T09:52:21;4.60;99.90
10042;DHT22;5061;49.068;12.058;2024-01-06T09:55:42;4.60;99.90
10042;DHT22;5061;49.068;12.058;2024-01-06T09:59:03;4.60;99.90
10042;DHT22;5061;49.068;12.058;2024-01-06T10:02:24;4.60;99.90
10042;DHT22;5061;49.068;12.058;2024-01-06T10:05:46;4.70;99.90
10042;DHT22;5061;49.068;12.058;2024-01-06T10:09:06;4.60;99.90
10042;DHT22;5061;49.068;12.058;2024-01-06T10:12:27;4.70;99.90
10042;DHT22;5061;49.068;12.058;2024-01-06T10:15:49;4.70;99.90
10042;DHT22;5061;49.068;12.058;2024-01-06T10:19:10;4.70;99.90
10042;DHT22;5061;49.068;12.058;2024-01-06T10:22:31;4.80;99.90
10042;DHT22;5061;49.068;12.058;2024-01-06T10:25:53;4.80;99.90
10042;DHT22;5061;49.068;12.058;2024-01-06T10:29:13;4.80;99.90
10042;DHT22;5061;49.068;12.058;2024-01-06T10:32:35;4.80;99.90
10042;DHT22;5061;49.068;12.058;2024-01-06T10:35:57;4.90;99.90
10042;DHT22;5061;49.068;12.058;2024-01-06T10:39:18;4.90;99.90
10042;DHT22;5061;49.068;12.058;2024-01-06T10:42:40;4.80;99.90
10042;DHT22;5061;49.068;12.058;2024-01-06T10:46:03;4.90;99.90
10042;DHT22;5061;49.068;12.058;2024-01-06T10:49:25;4.90;99.90
10042;DHT22;5061;49.068;12.058;2024-01-06T10:52:48;4.90;99.90
10042;DHT22;5061;49.068;12.058;2024-01-06T10:56:09;4.90;99.90
10042;DHT22;5061;49.068;12.058;2024-01-06T10:59:33;4.90;99.90
10042;DHT22;5061;49.068;12.058;2024-01-06T11:02:55;4.90;99.90
10042;DHT22;5061;49.068;12.058;2024-01-06T11:06:18;4.90;99.90
10042;DHT22;5061;49.068;12.058;2024-01-06T11:09:42;4.90;99.90
10042;DHT22;5061;49.068;12.058;2024-01-06T11:13:15;4.90;99.90
10042;DHT22;5061;49.068;12.058;2024-01-06T11:16:41;4.90;99.90
10042;DHT22;5061;49.068;12.058;2024-01-06T11:20:05;5.00;99.90
10042;DHT22;5061;49.068;12.058;2024-01-06T11:23:26;5.00;99.90
10042;DHT22;5061;49.068;12.058;2024-01-06T11:26:51;5.10;99.90
10042;DHT22;5061;49.068;12.058;2024-01-06T11:30:25;5.10;99.90
10042;DHT22;5061;49.068;12.058;2024-01-06T11:33:46;5.10;99.90
10042;DHT22;5061;49.068;12.058;2024-01-06T11:37:11;5.10;99.90
10042;DHT22;5061;49.068;12.058;2024-01-06T11:40:35;5.20;99.90
10042;DHT22;5061;49.068;12.058;2024-01-06T11:43:55;5.20;99.90
10042;DHT22;5061;49.068;12.058;2024-01-06T11:47:17;5.20;99.90
10042;DHT22;5061;49.068;12.058;2024-01-06T11:50:39;5.30;99.90
10042;DHT22;5061;49.068;12.058;2024-01-06T11:54:00;5.30;99.90
10042;DHT22;5061;49.068;12.058;2024-01-06T11:57:21;5.30;99.90
10042;DHT22;5061;49.068;12.058;2024-01-06T12:00:42;5.30;99.90
10042;DHT22;5061;49.068;12.058;2024-01-06T12:04:02;5.30;99.90
10042;DHT22;5061;49.068;12.058;2024-01-06T12:07:25;5.30;99.90
10042;DHT22;5061;49.068;12.058;2024-01-06T12:10:46;5.40;99.90
10042;DHT22;5061;49.068;12.058;2024-01-06T12:14:07;5.30;99.90
10042;DHT22;5061;49.068;12.058;2024-01-06T12:17:29;5.30;99.90
10042;DHT22;5061;49.068;12.058;2024-01-06T12:20:50;5.20;99.90
10042;DHT22;5061;49.068;12.058;2024-01-06T12:24:17;5.30;99.90
10042;DHT22;5061;49.068;12.058;2024-01-06T12:27:42;5.20;99.90
10042;DHT22;5061;49.068;12.058;2024-01-06T12:31:04;5.20;99.90
10042;DHT22;5061;49.068;12.058;2024-01-06T12:34:29;5.20;99.90
10042;DHT22;5061;49.068;12.058;2024-01-06T12:37:50;5.20;99.90
10042;DHT22;5061;49.068;12.058;2024-01-06T12:41:11;5.20;99.90
10042;DHT22;5061;49.068;12.058;2024-01-06T12:44:33;5.20;99.90
10042;DHT22;5061;49.068;12.058;2024-01-06T12:47:57;5.20;99.90
10042;DHT22;5061;49.068;12.058;2024-01-06T12:51:17;5.20;99.90
10042;DHT22;5061;49.068;12.058;2024-01-06T12:54:39;5.20;99.90
10042;DHT22;5061;49.068;12.058;2024-01-06T12:58:01;5.20;99.90
10042;DHT22;5061;49.068;12.058;2024-01-06T13:01:24;5.20;99.90
10042;DHT22;5061;49.068;12.058;2024-01-06T13:04:45;5.20;99.90
10042;DHT22;5061;49.068;12.058;2024-01-06T13:08:06;5.20;99.90
10042;DHT22;5061;49.068;12.058;2024-01-06T13:11:27;5.20;99.90
10042;DHT22;5061;49.068;12.058;2024-01-06T13:14:48;5.20;99.90
10042;DHT22;5061;49.068;12.058;2024-01-06T13:18:09;5.20;99.90
10042;DHT22;5061;49.068;12.058;2024-01-06T13:21:30;5.20;99.90
10042;DHT22;5061;49.068;12.058;2024-01-06T13:24:51;5.20;99.90
10042;DHT22;5061;49.068;12.058;2024-01-06T13:28:11;5.20;99.90
10042;DHT22;5061;49.068;12.058;2024-01-06T13:31:32;5.20;99.90
10042;DHT22;5061;49.068;12.058;2024-01-06T13:34:53;5.20;99.90
10042;DHT22;5061;49.068;12.058;2024-01-06T13:38:16;5.20;99.90
10042;DHT22;5061;49.068;12.058;2024-01-06T13:41:36;5.20;99.90
10042;DHT22;5061;49.068;12.058;2024-01-06T13:44:57;5.10;99.90
10042;DHT22;5061;49.068;12.058;2024-01-06T13:48:20;5.10;99.90
10042;DHT22;5061;49.068;12.058;2024-01-06T13:51:41;5.10;99.90
10042;DHT22;5061;49.068;12.058;2024-01-06T13:55:02;5.10;99.90
10042;DHT22;5061;49.068;12.058;2024-01-06T13:58:23;5.00;99.90
10042;DHT22;5061;49.068;12.058;2024-01-06T14:01:43;5.00;99.90
10042;DHT22;5061;49.068;12.058;2024-01-06T14:05:05;4.90;99.90
10042;DHT22;5061;49.068;12.058;2024-01-06T14:08:28;4.90;99.90
10042;DHT22;5061;49.068;12.058;2024-01-06T14:11:49;4.90;99.90
10042;DHT22;5061;49.068;12.058;2024-01-06T14:15:09;5.00;99.90
10042;DHT22;5061;49.068;12.058;2024-01-06T14:18:30;4.90;99.90
10042;DHT22;5061;49.068;12.058;2024-01-06T14:21:51;4.90;99.90
10042;DHT22;5061;49.068;12.058;2024-01-06T14:25:12;4.90;99.90
10042;DHT22;5061;49.068;12.058;2024-01-06T14:28:33;4.90;99.90
10042;DHT22;5061;49.068;12.058;2024-01-06T14:31:54;4.80;99.90
10042;DHT22;5061;49.068;12.058;2024-01-06T14:35:14;4.90;99.90
10042;DHT22;5061;49.068;12.058;2024-01-06T14:38:36;4.80;99.90
10042;DHT22;5061;49.068;12.058;2024-01-06T14:41:57;4.80;99.90
10042;DHT22;5061;49.068;12.058;2024-01-06T14:45:17;4.80;99.90
10042;DHT22;5061;49.068;12.058;2024-01-06T14:48:38;4.80;99.90
10042;DHT22;5061;49.068;12.058;2024-01-06T14:51:59;4.70;99.90
10042;DHT22;5061;49.068;12.058;2024-01-06T14:55:20;4.70;99.90
10042;DHT22;5061;49.068;12.058;2024-01-06T14:58:40;4.70;99.90
10042;DHT22;5061;49.068;12.058;2024-01-06T15:02:01;4.70;99.90
10042;DHT22;5061;49.068;12.058;2024-01-06T15:05:21;4.70;99.90
10042;DHT22;5061;49.068;12.058;2024-01-06T15:08:43;4.70;99.90
10042;DHT22;5061;49.068;12.058;2024-01-06T15:12:04;4.60;99.90
10042;DHT22;5061;49.068;12.058;2024-01-06T15:15:25;4.60;99.90
10042;DHT22;5061;49.068;12.058;2024-01-06T15:18:46;4.60;99.90
10042;DHT22;5061;49.068;12.058;2024-01-06T15:22:07;4.60;99.90
10042;DHT22;5061;49.068;12.058;2024-01-06T15:25:28;4.60;99.90
10042;DHT22;5061;49.068;12.058;2024-01-06T15:28:48;4.50;99.90
10042;DHT22;5061;49.068;12.058;2024-01-06T15:32:09;4.50;99.90
10042;DHT22;5061;49.068;12.058;2024-01-06T15:35:30;4.40;99.90
10042;DHT22;5061;49.068;12.058;2024-01-06T15:38:50;4.40;99.90
10042;DHT22;5061;49.068;12.058;2024-01-06T15:42:11;4.40;99.90
10042;DHT22;5061;49.068;12.058;2024-01-06T15:45:31;4.40;99.90
10042;DHT22;5061;49.068;12.058;2024-01-06T15:48:52;4.30;99.90
10042;DHT22;5061;49.068;12.058;2024-01-06T15:52:13;4.30;99.90
10042;DHT22;5061;49.068;12.058;2024-01-06T15:55:33;4.30;99.90
10042;DHT22;5061;49.068;12.058;2024-01-06T15:58:54;4.30;99.90
10042;DHT22;5061;49.068;12.058;2024-01-06T16:02:16;4.30;99.90
10042;DHT22;5061;49.068;12.058;2024-01-06T16:05:37;4.20;99.90
10042;DHT22;5061;49.068;12.058;2024-01-06T16:08:58;4.30;99.90
10042;DHT22;5061;49.068;12.058;2024-01-06T16:12:18;4.20;99.90
10042;DHT22;5061;49.068;12.058;2024-01-06T16:15:39;4.20;99.90
10042;DHT22;5061;49.068;12.058;2024-01-06T16:18:59;4.20;99.90
10042;DHT22;5061;49.068;12.058;2024-01-06T16:22:20;4.20;99.90
10042;DHT22;5061;49.068;12.058;2024-01-06T16:25:41;4.20;99.90
10042;DHT22;5061;49.068;12.058;2024-01-06T16:29:01;4.20;99.90
10042;DHT22;5061;49.068;12.058;2024-01-06T16:32:22;4.20;99.90
10042;DHT22;5061;49.068;12.058;2024-01-06T16:35:43;4.20;99.90
10042;DHT22;5061;49.068;12.058;2024-01-06T16:39:06;4.10;99.90
10042;DHT22;5061;49.068;12.058;2024-01-06T16:42:26;4.10;99.90
10042;DHT22;5061;49.068;12.058;2024-01-06T16:45:47;4.10;99.90
10042;DHT22;5061;49.068;12.058;2024-01-06T16:49:08;4.10;99.90
10042;DHT22;5061;49.068;12.058;2024-01-06T16:52:28;4.10;99.90
10042;DHT22;5061;49.068;12.058;2024-01-06T16:55:49;4.10;99.90
10042;DHT22;5061;49.068;12.058;2024-01-06T16:59:11;4.10;99.90
10042;DHT22;5061;49.068;12.058;2024-01-06T17:02:31;4.10;99.90
10042;DHT22;5061;49.068;12.058;2024-01-06T17:05:52;4.10;99.90
10042;DHT22;5061;49.068;12.058;2024-01-06T17:09:12;4.00;99.90
10042;DHT22;5061;49.068;12.058;2024-01-06T17:12:33;4.00;99.90
10042;DHT22;5061;49.068;12.058;2024-01-06T17:15:53;4.00;99.90
10042;DHT22;5061;49.068;12.058;2024-01-06T17:19:14;4.00;99.90
10042;DHT22;5061;49.068;12.058;2024-01-06T17:22:35;4.00;99.90
10042;DHT22;5061;49.068;12.058;2024-01-06T17:25:56;4.00;99.90
10042;DHT22;5061;49.068;12.058;2024-01-06T17:29:17;4.00;99.90
10042;DHT22;5061;49.068;12.058;2024-01-06T17:32:38;4.00;99.90
10042;DHT22;5061;49.068;12.058;2024-01-06T17:36:01;4.00;99.90
10042;DHT22;5061;49.068;12.058;2024-01-06T17:39:22;4.00;99.90
10042;DHT22;5061;49.068;12.058;2024-01-06T17:42:43;4.00;99.90
10042;DHT22;5061;49.068;12.058;2024-01-06T17:46:04;4.00;99.90
10042;DHT22;5061;49.068;12.058;2024-01-06T17:49:24;4.00;99.90
10042;DHT22;5061;49.068;12.058;2024-01-06T17:52:45;3.90;99.90
10042;DHT22;5061;49.068;12.058;2024-01-06T17:56:06;3.90;99.90
10042;DHT22;5061;49.068;12.058;2024-01-06T17:59:27;3.90;99.90
10042;DHT22;5061;49.068;12.058;2024-01-06T18:02:47;4.00;99.90
10042;DHT22;5061;49.068;12.058;2024-01-06T18:06:08;3.90;99.90
10042;DHT22;5061;49.068;12.058;2024-01-06T18:09:29;4.00;99.90
10042;DHT22;5061;49.068;12.058;2024-01-06T18:12:49;3.90;99.90
10042;DHT22;5061;49.068;12.058;2024-01-06T18:16:12;3.90;99.90
10042;DHT22;5061;49.068;12.058;2024-01-06T18:19:34;3.90;99.90
10042;DHT22;5061;49.068;12.058;2024-01-06T18:22:54;3.90;99.90
10042;DHT22;5061;49.068;12.058;2024-01-06T18:26:15;3.90;99.90
10042;DHT22;5061;49.068;12.058;2024-01-06T18:29:37;3.90;99.90
10042;DHT22;5061;49.068;12.058;2024-01-06T18:32:58;3.80;99.90
10042;DHT22;5061;49.068;12.058;2024-01-06T18:36:18;3.80;99.90
10042;DHT22;5061;49.068;12.058;2024-01-06T18:39:39;3.80;99.90
10042;DHT22;5061;49.068;12.058;2024-01-06T18:43:00;3.80;99.90
10042;DHT22;5061;49.068;12.058;2024-01-06T18:46:20;3.80;99.90
10042;DHT22;5061;49.068;12.058;2024-01-06T18:49:41;3.80;99.90
10042;DHT22;5061;49.068;12.058;2024-01-06T18:53:02;3.80;99.90
10042;DHT22;5061;49.068;12.058;2024-01-06T18:56:23;3.80;99.90
10042;DHT22;5061;49.068;12.058;2024-01-06T18:59:47;3.70;99.90
10042;DHT22;5061;49.068;12.058;2024-01-06T19:03:08;3.70;99.90
10042;DHT22;5061;49.068;12.058;2024-01-06T19:06:29;3.70;99.90
10042;DHT22;5061;49.068;12.058;2024-01-06T19:09:50;3.70;99.90
10042;DHT22;5061;49.068;12.058;2024-01-06T19:13:11;3.70;99.90
10042;DHT22;5061;49.068;12.058;2024-01-06T19:16:32;3.70;99.90
10042;DHT22;5061;49.068;12.058;2024-01-06T19:19:53;3.60;99.90
10042;DHT22;5061;49.068;12.058;2024-01-06T19:23:13;3.60;99.90
10042;DHT22;5061;49.068;12.058;2024-01-06T19:26:34;3.60;99.90
10042;DHT22;5061;49.068;12.058;2024-01-06T19:29:55;3.60;99.90
10042;DHT22;5061;49.068;12.058;2024-01-06T19:33:15;3.60;99.90
10042;DHT22;5061;49.068;12.058;2024-01-06T19:36:37;3.60;99.90
10042;DHT22;5061;49.068;12.058;2024-01-06T19:39:59;3.60;99.90
10042;DHT22;5061;49.068;12.058;2024-01-06T19:43:21;3.60;99.90
10042;DHT22;5061;49.068;12.058;2024-01-06T19:46:42;3.60;99.90
10042;DHT22;5061;49.068;12.058;2024-01-06T19:50:03;3.60;99.90
10042;DHT22;5061;49.068;12.058;2024-01-06T19:53:23;3.60;99.90
10042;DHT22;5061;49.068;12.058;2024-01-06T19:56:44;3.50;99.90
10042;DHT22;5061;49.068;12.058;2024-01-06T20:00:05;3.50;99.90
10042;DHT22;5061;49.068;12.058;2024-01-06T20:03:26;3.50;99.90
10042;DHT22;5061;49.068;12.058;2024-01-06T20:06:47;3.50;99.90
10042;DHT22;5061;49.068;12.058;2024-01-06T20:10:08;3.50;99.90
10042;DHT22;5061;49.068;12.058;2024-01-06T20:13:31;3.50;99.90
10042;DHT22;5061;49.068;12.058;2024-01-06T20:16:53;3.60;99.90
10042;DHT22;5061;49.068;12.058;2024-01-06T20:20:16;3.50;99.90
10042;DHT22;5061;49.068;12.058;2024-01-06T20:23:37;3.60;99.90
10042;DHT22;5061;49.068;12.058;2024-01-06T20:26:58;3.60;99.90
10042;DHT22;5061;49.068;12.058;2024-01-06T20:30:18;3.50;99.90
10042;DHT22;5061;49.068;12.058;2024-01-06T20:33:39;3.50;99.90
10042;DHT22;5061;49.068;12.058;2024-01-06T20:37:00;3.50;99.90
10042;DHT22;5061;49.068;12.058;2024-01-06T20:40:21;3.50;99.90
10042;DHT22;5061;49.068;12.058;2024-01-06T20:43:41;3.60;99.90
10042;DHT22;5061;49.068;12.058;2024-01-06T20:47:02;3.60;99.90
10042;DHT22;5061;49.068;12.058;2024-01-06T20:50:23;3.60;99.90
10042;DHT22;5061;49.068;12.058;2024-01-06T20:53:44;3.50;99.90
10042;DHT22;5061;49.068;12.058;2024-01-06T20:57:05;3.50;99.90
10042;DHT22;5061;49.068;12.058;2024-01-06T21:00:27;3.50;99.90
10042;DHT22;5061;49.068;12.058;2024-01-06T21:03:53;3.50;99.90
10042;DHT22;5061;49.068;12.058;2024-01-06T21:07:15;3.50;99.90
10042;DHT22;5061;49.068;12.058;2024-01-06T21:10:36;3.50;99.90
10042;DHT22;5061;49.068;12.058;2024-01-06T21:13:57;3.50;99.90
10042;DHT22;5061;49.068;12.058;2024-01-06T21:17:17;3.50;99.90
10042;DHT22;5061;49.068;12.058;2024-01-06T21:20:38;3.50;99.90
10042;DHT22;5061;49.068;12.058;2024-01-06T21:23:59;3.50;99.90
10042;DHT22;5061;49.068;12.058;2024-01-06T21:27:19;3.50;99.90
10042;DHT22;5061;49.068;12.058;2024-01-06T21:30:42;3.50;99.90
10042;DHT22;5061;49.068;12.058;2024-01-06T21:34:03;3.50;99.90